< < Back
Terminal Aerodrome Forecast


Current Version              Previous Versions:   1  2  3  4  5  6  7  8  9  

Terminal Aerodrome Forecast

102
FTUS44 KBMX 011000 AAA
TAFMGM
TAF AMD
KMGM 011028Z 0110/0206 36004KT P6SM BKN100
     FM011500 03004KT P6SM BKN150=

Latest METAR

913
SAUS80 KWBC 011100 RRG
MTRMGM
METAR KMGM 011053Z AUTO 04003KT 10SM CLR 23/20 A3000 RMK AO2 SLP156
T02330200


USA.gov is the U.S. government's official web portal to all federal, state and local government web resources and services.